sensor_id;sensor_type;location;lat;lon;timestamp;pressure;altitude;pressure_sealevel;temperature;humidity
8697;BME280;4385;48.848;8.924;2023-07-31T00:02:21;97438.75;;;21.77;100.00
8697;BME280;4385;48.848;8.924;2023-07-31T00:04:46;97439.56;;;21.78;100.00
8697;BME280;4385;48.848;8.924;2023-07-31T00:07:12;97454.13;;;21.77;100.00
8697;BME280;4385;48.848;8.924;2023-07-31T00:09:37;97448.16;;;21.77;100.00
8697;BME280;4385;48.848;8.924;2023-07-31T00:12:03;97452.44;;;21.76;100.00
8697;BME280;4385;48.848;8.924;2023-07-31T00:14:28;97448.16;;;21.77;100.00
8697;BME280;4385;48.848;8.924;2023-07-31T00:16:53;97443.03;;;21.75;100.00
8697;BME280;4385;48.848;8.924;2023-07-31T00:19:19;97447.31;;;21.76;100.00
8697;BME280;4385;48.848;8.924;2023-07-31T00:21:44;97446.44;;;21.76;100.00
8697;BME280;4385;48.848;8.924;2023-07-31T00:24:09;97437.03;;;21.76;100.00
8697;BME280;4385;48.848;8.924;2023-07-31T00:26:35;97448.16;;;21.75;100.00
8697;BME280;4385;48.848;8.924;2023-07-31T00:29:00;97444.69;;;21.78;100.00
8697;BME280;4385;48.848;8.924;2023-07-31T00:31:25;97459.19;;;21.79;100.00
8697;BME280;4385;48.848;8.924;2023-07-31T00:33:51;97455.84;;;21.77;100.00
8697;BME280;4385;48.848;8.924;2023-07-31T00:36:16;97457.50;;;21.78;100.00
8697;BME280;4385;48.848;8.924;2023-07-31T00:38:43;97457.50;;;21.78;100.00
8697;BME280;4385;48.848;8.924;2023-07-31T00:41:08;97460.06;;;21.78;100.00
8697;BME280;4385;48.848;8.924;2023-07-31T00:43:34;97452.44;;;21.76;100.00
8697;BME280;4385;48.848;8.924;2023-07-31T00:45:59;97451.59;;;21.76;100.00
8697;BME280;4385;48.848;8.924;2023-07-31T00:48:25;97450.72;;;21.75;100.00
8697;BME280;4385;48.848;8.924;2023-07-31T00:50:50;97446.50;;;21.74;100.00
8697;BME280;4385;48.848;8.924;2023-07-31T00:53:16;97444.81;;;21.73;100.00
8697;BME280;4385;48.848;8.924;2023-07-31T00:55:42;97448.22;;;21.74;100.00
8697;BME280;4385;48.848;8.924;2023-07-31T00:58:08;97441.44;;;21.73;100.00
8697;BME280;4385;48.848;8.924;2023-07-31T01:00:33;97442.25;;;21.73;100.00
8697;BME280;4385;48.848;8.924;2023-07-31T01:02:59;97440.59;;;21.72;100.00
8697;BME280;4385;48.848;8.924;2023-07-31T01:05:42;97430.34;;;21.72;100.00
8697;BME280;4385;48.848;8.924;2023-07-31T01:11:31;97438.94;;;21.71;100.00
8697;BME280;4385;48.848;8.924;2023-07-31T01:13:58;97425.19;;;21.72;100.00
8697;BME280;4385;48.848;8.924;2023-07-31T01:16:25;97418.41;;;21.71;100.00
8697;BME280;4385;48.848;8.924;2023-07-31T01:18:50;97412.44;;;21.71;100.00
8697;BME280;4385;48.848;8.924;2023-07-31T01:21:28;97411.59;;;21.70;100.00
8697;BME280;4385;48.848;8.924;2023-07-31T01:26:53;97413.41;;;21.68;100.00
8697;BME280;4385;48.848;8.924;2023-07-31T01:32:25;97406.56;;;21.67;100.00
8697;BME280;4385;48.848;8.924;2023-07-31T01:34:52;97410.88;;;21.66;100.00
8697;BME280;4385;48.848;8.924;2023-07-31T01:37:18;97415.16;;;21.66;100.00
8697;BME280;4385;48.848;8.924;2023-07-31T01:39:44;97409.19;;;21.65;100.00
8697;BME280;4385;48.848;8.924;2023-07-31T01:42:09;97405.81;;;21.65;100.00
8697;BME280;4385;48.848;8.924;2023-07-31T01:44:34;97400.75;;;21.63;100.00
8697;BME280;4385;48.848;8.924;2023-07-31T01:46:59;97399.91;;;21.63;100.00
8697;BME280;4385;48.848;8.924;2023-07-31T01:49:25;97399.06;;;21.62;100.00
8697;BME280;4385;48.848;8.924;2023-07-31T01:51:51;97397.38;;;21.61;100.00
8697;BME280;4385;48.848;8.924;2023-07-31T01:54:16;97395.66;;;21.62;100.00
8697;BME280;4385;48.848;8.924;2023-07-31T01:56:41;97392.25;;;21.61;100.00
8697;BME280;4385;48.848;8.924;2023-07-31T01:59:07;97383.72;;;21.61;100.00
8697;BME280;4385;48.848;8.924;2023-07-31T02:01:32;97388.84;;;21.61;100.00
8697;BME280;4385;48.848;8.924;2023-07-31T02:03:57;97390.59;;;21.60;100.00
8697;BME280;4385;48.848;8.924;2023-07-31T02:06:22;97383.78;;;21.59;100.00
8697;BME280;4385;48.848;8.924;2023-07-31T02:08:48;97380.41;;;21.59;100.00
8697;BME280;4385;48.848;8.924;2023-07-31T02:11:13;97387.19;;;21.60;100.00
8697;BME280;4385;48.848;8.924;2023-07-31T02:13:39;97376.94;;;21.60;100.00
8697;BME280;4385;48.848;8.924;2023-07-31T02:16:04;97379.50;;;21.60;100.00
8697;BME280;4385;48.848;8.924;2023-07-31T02:18:29;97367.59;;;21.59;100.00
8697;BME280;4385;48.848;8.924;2023-07-31T02:20:54;97369.25;;;21.60;100.00
8697;BME280;4385;48.848;8.924;2023-07-31T02:23:20;97371.81;;;21.60;100.00
8697;BME280;4385;48.848;8.924;2023-07-31T02:25:46;97363.28;;;21.59;100.00
8697;BME280;4385;48.848;8.924;2023-07-31T02:28:11;97352.19;;;21.59;100.00
8697;BME280;4385;48.848;8.924;2023-07-31T02:30:37;97354.75;;;21.59;100.00
8697;BME280;4385;48.848;8.924;2023-07-31T02:33:02;97349.63;;;21.59;100.00
8697;BME280;4385;48.848;8.924;2023-07-31T02:35:27;97348.72;;;21.60;100.00
8697;BME280;4385;48.848;8.924;2023-07-31T02:37:53;97345.31;;;21.59;100.00
8697;BME280;4385;48.848;8.924;2023-07-31T02:40:18;97343.59;;;21.60;100.00
8697;BME280;4385;48.848;8.924;2023-07-31T02:42:44;97344.50;;;21.59;100.00
8697;BME280;4385;48.848;8.924;2023-07-31T02:45:09;97341.94;;;21.59;100.00
8697;BME280;4385;48.848;8.924;2023-07-31T02:47:34;97333.47;;;21.57;100.00
8697;BME280;4385;48.848;8.924;2023-07-31T02:50:00;97338.59;;;21.57;100.00
8697;BME280;4385;48.848;8.924;2023-07-31T02:52:25;97338.59;;;21.57;100.00
8697;BME280;4385;48.848;8.924;2023-07-31T02:54:51;97337.69;;;21.58;100.00
8697;BME280;4385;48.848;8.924;2023-07-31T02:57:16;97346.28;;;21.57;100.00
8697;BME280;4385;48.848;8.924;2023-07-31T02:59:41;97350.50;;;21.58;100.00
8697;BME280;4385;48.848;8.924;2023-07-31T03:02:07;97348.84;;;21.57;100.00
8697;BME280;4385;48.848;8.924;2023-07-31T03:04:32;97353.97;;;21.57;100.00
8697;BME280;4385;48.848;8.924;2023-07-31T03:06:57;97352.25;;;21.57;100.00
8697;BME280;4385;48.848;8.924;2023-07-31T03:09:22;97351.41;;;21.57;100.00
8697;BME280;4385;48.848;8.924;2023-07-31T03:11:48;97346.28;;;21.57;100.00
8697;BME280;4385;48.848;8.924;2023-07-31T03:14:13;97343.72;;;21.57;100.00
8697;BME280;4385;48.848;8.924;2023-07-31T03:16:38;97344.63;;;21.55;100.00
8697;BME280;4385;48.848;8.924;2023-07-31T03:19:03;97348.84;;;21.57;100.00
8697;BME280;4385;48.848;8.924;2023-07-31T03:21:29;97346.34;;;21.55;100.00
8697;BME280;4385;48.848;8.924;2023-07-31T03:23:54;97345.50;;;21.54;100.00
8697;BME280;4385;48.848;8.924;2023-07-31T03:26:19;97348.97;;;21.53;100.00
8697;BME280;4385;48.848;8.924;2023-07-31T03:28:45;97348.06;;;21.54;100.00
8697;BME280;4385;48.848;8.924;2023-07-31T03:31:10;97342.94;;;21.54;100.00
8697;BME280;4385;48.848;8.924;2023-07-31T03:33:36;97344.69;;;21.54;100.00
8697;BME280;4385;48.848;8.924;2023-07-31T03:36:01;97349.81;;;21.54;100.00
8697;BME280;4385;48.848;8.924;2023-07-31T03:38:27;97352.44;;;21.52;100.00
8697;BME280;4385;48.848;8.924;2023-07-31T03:40:52;97358.38;;;21.53;100.00
8697;BME280;4385;48.848;8.924;2023-07-31T03:43:17;97356.72;;;21.52;100.00
8697;BME280;4385;48.848;8.924;2023-07-31T03:45:43;97355.84;;;21.51;100.00
8697;BME280;4385;48.848;8.924;2023-07-31T03:48:08;97355.03;;;21.51;100.00
8697;BME280;4385;48.848;8.924;2023-07-31T03:50:34;97349.91;;;21.51;100.00
8697;BME280;4385;48.848;8.924;2023-07-31T03:52:59;97349.06;;;21.50;100.00
8697;BME280;4385;48.848;8.924;2023-07-31T03:55:24;97347.41;;;21.49;100.00
8697;BME280;4385;48.848;8.924;2023-07-31T03:57:49;97344.00;;;21.49;100.00
8697;BME280;4385;48.848;8.924;2023-07-31T04:00:15;97344.00;;;21.49;100.00
8697;BME280;4385;48.848;8.924;2023-07-31T04:02:40;97339.72;;;21.49;100.00
8697;BME280;4385;48.848;8.924;2023-07-31T04:05:07;97340.59;;;21.48;100.00
8697;BME280;4385;48.848;8.924;2023-07-31T04:07:32;97343.16;;;21.48;100.00
8697;BME280;4385;48.848;8.924;2023-07-31T04:09:58;97340.59;;;21.48;100.00
8697;BME280;4385;48.848;8.924;2023-07-31T04:12:23;97348.28;;;21.48;100.00
8697;BME280;4385;48.848;8.924;2023-07-31T04:14:48;97350.84;;;21.48;100.00
8697;BME280;4385;48.848;8.924;2023-07-31T04:17:13;97341.50;;;21.47;100.00
8697;BME280;4385;48.848;8.924;2023-07-31T04:19:39;97348.28;;;21.48;100.00
8697;BME280;4385;48.848;8.924;2023-07-31T04:22:04;97344.91;;;21.48;100.00
8697;BME280;4385;48.848;8.924;2023-07-31T04:24:29;97348.28;;;21.48;100.00
8697;BME280;4385;48.848;8.924;2023-07-31T04:26:55;97344.06;;;21.47;100.00
8697;BME280;4385;48.848;8.924;2023-07-31T04:29:20;97341.50;;;21.47;100.00
8697;BME280;4385;48.848;8.924;2023-07-31T04:31:45;97344.06;;;21.47;100.00
8697;BME280;4385;48.848;8.924;2023-07-31T04:34:11;97348.28;;;21.48;100.00
8697;BME280;4385;48.848;8.924;2023-07-31T04:36:39;97341.50;;;21.47;100.00
8697;BME280;4385;48.848;8.924;2023-07-31T04:39:04;97350.84;;;21.48;100.00
8697;BME280;4385;48.848;8.924;2023-07-31T04:41:29;97348.28;;;21.48;100.00
8697;BME280;4385;48.848;8.924;2023-07-31T04:43:55;97342.34;;;21.48;100.00
8697;BME280;4385;48.848;8.924;2023-07-31T04:46:20;97343.22;;;21.47;100.00
8697;BME280;4385;48.848;8.924;2023-07-31T04:48:45;97338.09;;;21.47;100.00
8697;BME280;4385;48.848;8.924;2023-07-31T04:51:10;97344.91;;;21.48;100.00
8697;BME280;4385;48.848;8.924;2023-07-31T04:53:36;97346.63;;;21.47;100.00
8697;BME280;4385;48.848;8.924;2023-07-31T04:56:01;97348.34;;;21.47;100.00
8697;BME280;4385;48.848;8.924;2023-07-31T04:58:27;97336.38;;;21.47;100.00
8697;BME280;4385;48.848;8.924;2023-07-31T05:00:52;97335.47;;;21.48;100.00
8697;BME280;4385;48.848;8.924;2023-07-31T05:03:17;97342.41;;;21.46;100.00
8697;BME280;4385;48.848;8.924;2023-07-31T05:05:43;97338.94;;;21.47;100.00
8697;BME280;4385;48.848;8.924;2023-07-31T05:08:08;97330.34;;;21.48;100.00
8697;BME280;4385;48.848;8.924;2023-07-31T05:10:33;97336.38;;;21.47;100.00
8697;BME280;4385;48.848;8.924;2023-07-31T05:12:59;97336.38;;;21.47;100.00
8697;BME280;4385;48.848;8.924;2023-07-31T05:15:24;97326.13;;;21.47;100.00
8697;BME280;4385;48.848;8.924;2023-07-31T05:17:49;97328.69;;;21.47;100.00
8697;BME280;4385;48.848;8.924;2023-07-31T05:20:14;97333.81;;;21.47;100.00
8697;BME280;4385;48.848;8.924;2023-07-31T05:22:40;97337.28;;;21.46;100.00
8697;BME280;4385;48.848;8.924;2023-07-31T05:25:06;97337.28;;;21.46;100.00
8697;BME280;4385;48.848;8.924;2023-07-31T05:27:32;97330.44;;;21.45;100.00
8697;BME280;4385;48.848;8.924;2023-07-31T05:29:57;97342.47;;;21.45;100.00
8697;BME280;4385;48.848;8.924;2023-07-31T05:32:23;97336.44;;;21.46;100.00
8697;BME280;4385;48.848;8.924;2023-07-31T05:34:53;97340.72;;;21.45;100.00
8697;BME280;4385;48.848;8.924;2023-07-31T05:37:19;97337.28;;;21.46;100.00
8697;BME280;4385;48.848;8.924;2023-07-31T05:39:44;97337.28;;;21.46;100.00
8697;BME280;4385;48.848;8.924;2023-07-31T05:42:09;97335.59;;;21.45;100.00
8697;BME280;4385;48.848;8.924;2023-07-31T05:44:35;97335.59;;;21.45;100.00
8697;BME280;4385;48.848;8.924;2023-07-31T05:47:00;97330.44;;;21.45;100.00
8697;BME280;4385;48.848;8.924;2023-07-31T05:49:25;97327.06;;;21.45;100.00
8697;BME280;4385;48.848;8.924;2023-07-31T05:51:51;97327.94;;;21.43;100.00
8697;BME280;4385;48.848;8.924;2023-07-31T05:54:16;97327.88;;;21.45;100.00
8697;BME280;4385;48.848;8.924;2023-07-31T05:56:41;97329.63;;;21.45;100.00
8697;BME280;4385;48.848;8.924;2023-07-31T05:59:08;97330.44;;;21.45;100.00
8697;BME280;4385;48.848;8.924;2023-07-31T06:01:34;97331.34;;;21.44;100.00
8697;BME280;4385;48.848;8.924;2023-07-31T06:03:59;97327.06;;;21.45;100.00
8697;BME280;4385;48.848;8.924;2023-07-31T06:06:24;97332.16;;;21.46;100.00
8697;BME280;4385;48.848;8.924;2023-07-31T06:08:49;97327.03;;;21.46;100.00
8697;BME280;4385;48.848;8.924;2023-07-31T06:11:15;97325.31;;;21.45;100.00
8697;BME280;4385;48.848;8.924;2023-07-31T06:13:40;97315.91;;;21.46;100.00
8697;BME280;4385;48.848;8.924;2023-07-31T06:16:05;97324.47;;;21.46;100.00
8697;BME280;4385;48.848;8.924;2023-07-31T06:18:34;97326.13;;;21.47;100.00
8697;BME280;4385;48.848;8.924;2023-07-31T06:20:59;97322.72;;;21.47;100.00
8697;BME280;4385;48.848;8.924;2023-07-31T06:23:24;97320.09;;;21.48;100.00
8697;BME280;4385;48.848;8.924;2023-07-31T06:25:49;97325.22;;;21.48;100.00
8697;BME280;4385;48.848;8.924;2023-07-31T06:28:15;97326.91;;;21.49;100.00
8697;BME280;4385;48.848;8.924;2023-07-31T06:30:40;97318.31;;;21.50;100.00
8697;BME280;4385;48.848;8.924;2023-07-31T06:33:05;97323.44;;;21.50;100.00
8697;BME280;4385;48.848;8.924;2023-07-31T06:35:30;97320.88;;;21.50;100.00
8697;BME280;4385;48.848;8.924;2023-07-31T06:37:56;97317.41;;;21.51;100.00
8697;BME280;4385;48.848;8.924;2023-07-31T06:40:22;97325.09;;;21.51;100.00
8697;BME280;4385;48.848;8.924;2023-07-31T06:42:47;97317.47;;;21.50;100.00
8697;BME280;4385;48.848;8.924;2023-07-31T06:45:13;97318.38;;;21.49;100.00
8697;BME280;4385;48.848;8.924;2023-07-31T06:47:38;97323.50;;;21.49;100.00
8697;BME280;4385;48.848;8.924;2023-07-31T06:50:04;97333.69;;;21.50;100.00
8697;BME280;4385;48.848;8.924;2023-07-31T06:52:30;97328.56;;;21.50;100.00
8697;BME280;4385;48.848;8.924;2023-07-31T06:55:23;97325.94;;;21.52;100.00
8697;BME280;4385;48.848;8.924;2023-07-31T06:57:50;97331.06;;;21.52;100.00
8697;BME280;4385;48.848;8.924;2023-07-31T07:00:16;97325.94;;;21.52;100.00
8697;BME280;4385;48.848;8.924;2023-07-31T07:02:42;97319.09;;;21.52;100.00
8697;BME280;4385;48.848;8.924;2023-07-31T07:05:08;97321.66;;;21.52;100.00
8697;BME280;4385;48.848;8.924;2023-07-31T07:07:34;97306.28;;;21.52;100.00
8697;BME280;4385;48.848;8.924;2023-07-31T07:09:59;97310.50;;;21.53;100.00
8697;BME280;4385;48.848;8.924;2023-07-31T07:12:25;97302.81;;;21.53;100.00
8697;BME280;4385;48.848;8.924;2023-07-31T07:14:51;97298.53;;;21.54;100.00
8697;BME280;4385;48.848;8.924;2023-07-31T07:17:18;97301.91;;;21.54;100.00
8697;BME280;4385;48.848;8.924;2023-07-31T07:19:44;97298.53;;;21.54;100.00
8697;BME280;4385;48.848;8.924;2023-07-31T07:22:09;97302.81;;;21.53;100.00
8697;BME280;4385;48.848;8.924;2023-07-31T07:24:35;97301.91;;;21.54;100.00
8697;BME280;4385;48.848;8.924;2023-07-31T07:27:00;97303.66;;;21.54;100.00
8697;BME280;4385;48.848;8.924;2023-07-31T07:29:25;97300.25;;;21.53;100.00
8697;BME280;4385;48.848;8.924;2023-07-31T07:31:51;97296.78;;;21.54;100.00
8697;BME280;4385;48.848;8.924;2023-07-31T07:34:16;97299.34;;;21.54;100.00
8697;BME280;4385;48.848;8.924;2023-07-31T07:36:41;97299.34;;;21.54;100.00
8697;BME280;4385;48.848;8.924;2023-07-31T07:39:08;97291.66;;;21.54;100.00
8697;BME280;4385;48.848;8.924;2023-07-31T07:41:33;97291.66;;;21.54;100.00
8697;BME280;4385;48.848;8.924;2023-07-31T07:43:58;97298.47;;;21.55;100.00
8697;BME280;4385;48.848;8.924;2023-07-31T07:46:23;97292.44;;;21.57;100.00
8697;BME280;4385;48.848;8.924;2023-07-31T07:48:49;97292.44;;;21.57;100.00
8697;BME280;4385;48.848;8.924;2023-07-31T07:51:14;97286.41;;;21.58;100.00
8697;BME280;4385;48.848;8.924;2023-07-31T07:53:39;97290.66;;;21.59;100.00
8697;BME280;4385;48.848;8.924;2023-07-31T07:56:04;97295.78;;;21.59;100.00
8697;BME280;4385;48.848;8.924;2023-07-31T07:58:30;97297.47;;;21.60;100.00
8697;BME280;4385;48.848;8.924;2023-07-31T08:00:55;97292.31;;;21.60;100.00
8697;BME280;4385;48.848;8.924;2023-07-31T08:03:20;97289.75;;;21.60;100.00
8697;BME280;4385;48.848;8.924;2023-07-31T08:05:45;97287.13;;;21.61;100.00
8697;BME280;4385;48.848;8.924;2023-07-31T08:08:17;97280.28;;;21.62;100.00
8697;BME280;4385;48.848;8.924;2023-07-31T08:10:43;97277.72;;;21.62;100.00
8697;BME280;4385;48.848;8.924;2023-07-31T08:13:11;97281.94;;;21.63;100.00
8697;BME280;4385;48.848;8.924;2023-07-31T08:15:36;97277.66;;;21.63;100.00
8697;BME280;4385;48.848;8.924;2023-07-31T08:18:02;97276.81;;;21.63;100.00
8697;BME280;4385;48.848;8.924;2023-07-31T08:20:27;97275.03;;;21.65;100.00
8697;BME280;4385;48.848;8.924;2023-07-31T08:22:52;97281.00;;;21.65;100.00
8697;BME280;4385;48.848;8.924;2023-07-31T08:25:18;97286.13;;;21.65;100.00
8697;BME280;4385;48.848;8.924;2023-07-31T08:27:43;97279.31;;;21.64;100.00
8697;BME280;4385;48.848;8.924;2023-07-31T08:30:10;97276.72;;;21.66;100.00
8697;BME280;4385;48.848;8.924;2023-07-31T08:32:35;97277.56;;;21.66;100.00
8697;BME280;4385;48.848;8.924;2023-07-31T08:35:00;97274.13;;;21.66;100.00
8697;BME280;4385;48.848;8.924;2023-07-31T08:37:26;97266.44;;;21.66;100.00
8697;BME280;4385;48.848;8.924;2023-07-31T08:39:51;97278.38;;;21.67;100.00
8697;BME280;4385;48.848;8.924;2023-07-31T08:42:16;97270.69;;;21.67;100.00
8697;BME280;4385;48.848;8.924;2023-07-31T08:44:43;97265.47;;;21.68;100.00
8697;BME280;4385;48.848;8.924;2023-07-31T08:47:09;97274.94;;;21.68;100.00
8697;BME280;4385;48.848;8.924;2023-07-31T08:49:36;97279.16;;;21.69;100.00
8697;BME280;4385;48.848;8.924;2023-07-31T08:52:03;97276.53;;;21.71;100.00
8697;BME280;4385;48.848;8.924;2023-07-31T08:54:29;97275.75;;;21.68;100.00
8697;BME280;4385;48.848;8.924;2023-07-31T08:56:56;97270.63;;;21.68;100.00
8697;BME280;4385;48.848;8.924;2023-07-31T08:59:22;97256.91;;;21.70;100.00
8697;BME280;4385;48.848;8.924;2023-07-31T09:01:50;97255.94;;;21.72;100.00
8697;BME280;4385;48.848;8.924;2023-07-31T09:04:18;97240.56;;;21.72;100.00
8697;BME280;4385;48.848;8.924;2023-07-31T09:06:45;97253.38;;;21.72;100.00
8697;BME280;4385;48.848;8.924;2023-07-31T09:09:12;97250.81;;;21.72;100.00
8697;BME280;4385;48.848;8.924;2023-07-31T09:11:37;97242.34;;;21.70;100.00
8697;BME280;4385;48.848;8.924;2023-07-31T09:14:03;97256.84;;;21.71;100.00
8697;BME280;4385;48.848;8.924;2023-07-31T09:16:33;97261.88;;;21.74;100.00
8697;BME280;4385;48.848;8.924;2023-07-31T09:18:59;97249.03;;;21.74;100.00
8697;BME280;4385;48.848;8.924;2023-07-31T09:21:26;97246.53;;;21.73;100.00
8697;BME280;4385;48.848;8.924;2023-07-31T09:23:53;97248.19;;;21.74;100.00
8697;BME280;4385;48.848;8.924;2023-07-31T09:26:33;97250.69;;;21.75;100.00
8697;BME280;4385;48.848;8.924;2023-07-31T09:29:00;97250.69;;;21.75;100.00
8697;BME280;4385;48.848;8.924;2023-07-31T09:31:42;97244.69;;;21.76;100.00
8697;BME280;4385;48.848;8.924;2023-07-31T09:34:07;97237.84;;;21.77;100.00
8697;BME280;4385;48.848;8.924;2023-07-31T09:36:40;97226.75;;;21.76;100.00
8697;BME280;4385;48.848;8.924;2023-07-31T09:39:09;97227.63;;;21.75;100.00
8697;BME280;4385;48.848;8.924;2023-07-31T09:41:47;97221.63;;;21.76;100.00
8697;BME280;4385;48.848;8.924;2023-07-31T09:44:13;97216.50;;;21.76;100.00
8697;BME280;4385;48.848;8.924;2023-07-31T09:46:39;97205.34;;;21.77;100.00
8697;BME280;4385;48.848;8.924;2023-07-31T09:51:30;97198.47;;;21.78;100.00
8697;BME280;4385;48.848;8.924;2023-07-31T09:53:56;97210.41;;;21.79;100.00
8697;BME280;4385;48.848;8.924;2023-07-31T09:56:22;97207.00;;;21.78;100.00
8697;BME280;4385;48.848;8.924;2023-07-31T09:58:48;97206.88;;;21.82;100.00
8697;BME280;4385;48.848;8.924;2023-07-31T10:01:14;97199.97;;;21.84;100.00
8697;BME280;4385;48.848;8.924;2023-07-31T10:03:39;97194.78;;;21.85;100.00
8697;BME280;4385;48.848;8.924;2023-07-31T10:06:07;97200.72;;;21.86;100.00
8697;BME280;4385;48.848;8.924;2023-07-31T10:08:35;97191.25;;;21.88;100.00
8697;BME280;4385;48.848;8.924;2023-07-31T10:11:02;97185.22;;;21.89;100.00
8697;BME280;4385;48.848;8.924;2023-07-31T10:13:30;97188.69;;;21.88;100.00
8697;BME280;4385;48.848;8.924;2023-07-31T10:15:59;97195.41;;;21.90;100.00
8697;BME280;4385;48.848;8.924;2023-07-31T10:18:26;97186.84;;;21.91;100.00
8697;BME280;4385;48.848;8.924;2023-07-31T10:20:52;97177.06;;;22.00;100.00
8697;BME280;4385;48.848;8.924;2023-07-31T10:23:17;97176.88;;;22.04;100.00
8697;BME280;4385;48.848;8.924;2023-07-31T10:25:43;97174.19;;;22.08;100.00
8697;BME280;4385;48.848;8.924;2023-07-31T10:28:10;97170.75;;;22.09;100.00
8697;BME280;4385;48.848;8.924;2023-07-31T10:30:37;97160.22;;;22.15;100.00
8697;BME280;4385;48.848;8.924;2023-07-31T10:33:04;97152.47;;;22.16;100.00
8697;BME280;4385;48.848;8.924;2023-07-31T10:35:30;97156.75;;;22.16;100.00
8697;BME280;4385;48.848;8.924;2023-07-31T10:38:09;97161.88;;;22.16;100.00
8697;BME280;4385;48.848;8.924;2023-07-31T10:40:35;97160.16;;;22.16;100.00
8697;BME280;4385;48.848;8.924;2023-07-31T10:43:01;97158.41;;;22.17;100.00
8697;BME280;4385;48.848;8.924;2023-07-31T10:45:38;97167.78;;;22.18;100.00
8697;BME280;4385;48.848;8.924;2023-07-31T10:48:06;97168.53;;;22.20;100.00
8697;BME280;4385;48.848;8.924;2023-07-31T10:50:36;97164.25;;;22.21;100.00
8697;BME280;4385;48.848;8.924;2023-07-31T10:53:02;97165.03;;;22.23;100.00
8697;BME280;4385;48.848;8.924;2023-07-31T10:55:32;97169.31;;;22.22;100.00
8697;BME280;4385;48.848;8.924;2023-07-31T10:58:11;97154.69;;;22.24;100.00
8697;BME280;4385;48.848;8.924;2023-07-31T11:00:42;97149.50;;;22.26;100.00
8697;BME280;4385;48.848;8.924;2023-07-31T11:03:16;97152.94;;;22.25;100.00
8697;BME280;4385;48.848;8.924;2023-07-31T11:05:45;97155.50;;;22.25;100.00
8697;BME280;4385;48.848;8.924;2023-07-31T11:08:15;97156.34;;;22.25;100.00
8697;BME280;4385;48.848;8.924;2023-07-31T11:10:42;97147.75;;;22.26;100.00
8697;BME280;4385;48.848;8.924;2023-07-31T11:13:08;97152.06;;;22.26;100.00
8697;BME280;4385;48.848;8.924;2023-07-31T11:15:34;97151.22;;;22.25;100.00
8697;BME280;4385;48.848;8.924;2023-07-31T11:18:02;97154.69;;;22.24;100.00
8697;BME280;4385;48.848;8.924;2023-07-31T11:20:32;97156.34;;;22.25;100.00
8697;BME280;4385;48.848;8.924;2023-07-31T11:23:06;97152.19;;;22.23;100.00
8697;BME280;4385;48.848;8.924;2023-07-31T11:25:32;97145.31;;;22.23;100.00
8697;BME280;4385;48.848;8.924;2023-07-31T11:28:05;97150.38;;;22.25;100.00
8697;BME280;4385;48.848;8.924;2023-07-31T11:30:31;97139.16;;;22.27;100.00
8697;BME280;4385;48.848;8.924;2023-07-31T11:32:57;97144.28;;;22.27;100.00
8697;BME280;4385;48.848;8.924;2023-07-31T11:35:22;97146.78;;;22.29;100.00
8697;BME280;4385;48.848;8.924;2023-07-31T11:37:48;97151.09;;;22.28;100.00
8697;BME280;4385;48.848;8.924;2023-07-31T11:40:14;97144.16;;;22.30;100.00
8697;BME280;4385;48.848;8.924;2023-07-31T11:42:39;97142.34;;;22.33;100.00
8697;BME280;4385;48.848;8.924;2023-07-31T11:45:06;97141.53;;;22.32;100.00
8697;BME280;4385;48.848;8.924;2023-07-31T11:47:33;97142.41;;;22.31;100.00
8697;BME280;4385;48.848;8.924;2023-07-31T11:50:10;97132.13;;;22.31;100.00
8697;BME280;4385;48.848;8.924;2023-07-31T11:52:42;97126.13;;;22.32;100.00
8697;BME280;4385;48.848;8.924;2023-07-31T11:55:09;97119.31;;;22.31;100.00
8697;BME280;4385;48.848;8.924;2023-07-31T11:57:36;97116.66;;;22.33;100.00
8697;BME280;4385;48.848;8.924;2023-07-31T12:00:03;97116.66;;;22.33;100.00
8697;BME280;4385;48.848;8.924;2023-07-31T12:02:29;97128.63;;;22.34;100.00
8697;BME280;4385;48.848;8.924;2023-07-31T12:04:55;97106.34;;;22.34;100.00
8697;BME280;4385;48.848;8.924;2023-07-31T12:07:20;97117.44;;;22.35;100.00
8697;BME280;4385;48.848;8.924;2023-07-31T12:09:54;97124.31;;;22.34;100.00
8697;BME280;4385;48.848;8.924;2023-07-31T12:12:24;97121.66;;;22.36;100.00
8697;BME280;4385;48.848;8.924;2023-07-31T12:14:50;97119.88;;;22.38;100.00
8697;BME280;4385;48.848;8.924;2023-07-31T12:17:17;97103.63;;;22.37;100.00
8697;BME280;4385;48.848;8.924;2023-07-31T12:19:44;97104.47;;;22.38;100.00
8697;BME280;4385;48.848;8.924;2023-07-31T12:22:13;97095.13;;;22.37;100.00
8697;BME280;4385;48.848;8.924;2023-07-31T12:24:43;97090.72;;;22.39;100.00
8697;BME280;4385;48.848;8.924;2023-07-31T12:27:13;97081.31;;;22.39;100.00
8697;BME280;4385;48.848;8.924;2023-07-31T12:29:41;97078.66;;;22.41;100.00
8697;BME280;4385;48.848;8.924;2023-07-31T12:32:21;97081.16;;;22.42;100.00
8697;BME280;4385;48.848;8.924;2023-07-31T12:34:47;97076.94;;;22.41;100.00
8697;BME280;4385;48.848;8.924;2023-07-31T12:37:12;97081.25;;;22.41;100.00
8697;BME280;4385;48.848;8.924;2023-07-31T12:39:38;97067.41;;;22.43;100.00
8697;BME280;4385;48.848;8.924;2023-07-31T12:42:03;97066.59;;;22.43;100.00
8697;BME280;4385;48.848;8.924;2023-07-31T12:44:29;97067.41;;;22.43;100.00
8697;BME280;4385;48.848;8.924;2023-07-31T12:46:54;97063.97;;;22.45;100.00
8697;BME280;4385;48.848;8.924;2023-07-31T12:49:19;97052.84;;;22.44;100.00
8697;BME280;4385;48.848;8.924;2023-07-31T12:51:44;97057.09;;;22.45;100.00
8697;BME280;4385;48.848;8.924;2023-07-31T12:54:10;97051.13;;;22.45;100.00
8697;BME280;4385;48.848;8.924;2023-07-31T12:56:35;97056.19;;;22.46;100.00
8697;BME280;4385;48.848;8.924;2023-07-31T12:59:00;97044.53;;;22.39;100.00
8697;BME280;4385;48.848;8.924;2023-07-31T13:01:26;97046.22;;;22.40;100.00
8697;BME280;4385;48.848;8.924;2023-07-31T13:03:52;97052.16;;;22.40;100.00
8697;BME280;4385;48.848;8.924;2023-07-31T13:06:17;97041.88;;;22.40;100.00
8697;BME280;4385;48.848;8.924;2023-07-31T13:08:42;97040.25;;;22.39;100.00
8697;BME280;4385;48.848;8.924;2023-07-31T13:11:07;97041.00;;;22.41;100.00
8697;BME280;4385;48.848;8.924;2023-07-31T13:13:33;97036.81;;;22.39;100.00
8697;BME280;4385;48.848;8.924;2023-07-31T13:15:58;97035.94;;;22.40;100.00
8697;BME280;4385;48.848;8.924;2023-07-31T13:18:23;97035.03;;;22.41;100.00